Time;durP1;ratioP1;P1;durP2;ratioP2;P2;SDS_P1;SDS_P2;PMS_P1;PMS_P2;Temp;Humidity;BMP_temperature;BMP_pressure;BME280_temperature;BME280_humidity;BME280_pressure;Samples;Min_cycle;Max_cycle;Signal;HPM_P1;HPM_P2
2021/07/23 00:01:12;;;;;;;16.58;11.20;;;19.20;99.90;;;;;;5035292;28;20052;-74
2021/07/23 00:03:41;;;;;;;19.88;11.77;;;19.10;99.90;;;;;;5034864;28;20086;-74
2021/07/23 00:06:08;;;;;;;21.35;11.65;;;19.10;99.90;;;;;;5034452;28;20056;-74
2021/07/23 00:08:35;;;;;;;17.05;11.18;;;19.10;99.90;;;;;;5033708;28;20125;-74
2021/07/23 00:11:02;;;;;;;21.73;12.25;;;19.10;99.90;;;;;;5034523;28;20164;-75
2021/07/23 00:13:29;;;;;;;22.10;12.15;;;19.00;99.90;;;;;;5032888;28;20944;-75
2021/07/23 00:15:56;;;;;;;20.48;11.30;;;19.00;99.90;;;;;;5034639;28;20056;-75
2021/07/23 00:18:23;;;;;;;17.77;11.82;;;19.00;99.90;;;;;;5032475;28;20049;-75
2021/07/23 00:20:51;;;;;;;18.65;11.38;;;18.90;99.90;;;;;;5033454;28;20516;-75
2021/07/23 00:23:18;;;;;;;17.58;11.35;;;18.70;99.90;;;;;;5032792;28;20048;-75
2021/07/23 00:25:45;;;;;;;19.40;11.50;;;18.70;99.90;;;;;;5034280;28;20052;-74
2021/07/23 00:28:14;;;;;;;21.58;12.82;;;18.70;99.90;;;;;;5032931;28;20071;-74
2021/07/23 00:30:40;;;;;;;23.08;12.85;;;18.70;99.90;;;;;;5033799;28;20080;-75
2021/07/23 00:33:08;;;;;;;23.05;12.70;;;18.60;99.90;;;;;;5033384;28;20056;-74
2021/07/23 00:35:35;;;;;;;18.40;11.85;;;18.60;99.90;;;;;;5033806;28;20109;-74
2021/07/23 00:38:03;;;;;;;21.45;12.38;;;18.50;99.90;;;;;;5033892;28;20075;-75
2021/07/23 00:40:30;;;;;;;23.35;12.80;;;18.50;99.90;;;;;;5032828;28;20508;-74
2021/07/23 00:42:57;;;;;;;21.17;12.27;;;18.50;99.90;;;;;;5034140;28;20040;-74
2021/07/23 00:45:24;;;;;;;19.58;12.80;;;18.50;99.90;;;;;;5032892;28;20057;-74
2021/07/23 00:47:55;;;;;;;21.60;13.15;;;18.50;99.90;;;;;;5033732;28;20044;-75
2021/07/23 00:50:22;;;;;;;19.27;12.10;;;18.50;99.90;;;;;;5033219;28;20152;-75
2021/07/23 00:52:49;;;;;;;23.55;12.75;;;18.50;99.90;;;;;;5034789;28;20461;-75
2021/07/23 00:55:19;;;;;;;22.20;13.73;;;18.50;99.90;;;;;;5033668;28;20118;-75
2021/07/23 00:57:46;;;;;;;21.55;13.88;;;18.40;99.90;;;;;;5032000;28;20508;-75
2021/07/23 01:00:14;;;;;;;23.38;13.10;;;18.40;99.90;;;;;;5034034;28;20466;-75
2021/07/23 01:02:41;;;;;;;21.90;13.05;;;18.30;99.90;;;;;;5033651;28;20056;-75
2021/07/23 01:05:09;;;;;;;21.60;12.70;;;18.30;99.90;;;;;;5034507;28;20738;-74
2021/07/23 01:07:37;;;;;;;21.40;12.10;;;18.40;99.90;;;;;;5032984;28;20072;-74
2021/07/23 01:10:06;;;;;;;21.90;13.13;;;18.30;99.90;;;;;;5033831;28;20080;-75
2021/07/23 01:12:36;;;;;;;24.00;14.10;;;18.20;99.90;;;;;;5033004;28;20155;-75
2021/07/23 01:15:04;;;;;;;22.33;14.07;;;18.10;99.90;;;;;;5033309;28;20513;-74
2021/07/23 01:17:31;;;;;;;23.00;13.65;;;18.10;99.90;;;;;;5031975;28;20079;-74
2021/07/23 01:20:03;;;;;;;21.20;14.13;;;18.10;99.90;;;;;;5032913;28;20106;-75
2021/07/23 01:22:31;;;;;;;24.27;13.52;;;18.00;99.90;;;;;;5033157;28;20110;-74
2021/07/23 01:25:01;;;;;;;19.95;12.95;;;17.90;99.90;;;;;;5034221;28;20080;-75
2021/07/23 01:27:29;;;;;;;23.42;14.13;;;17.80;99.90;;;;;;5032849;28;21401;-75
2021/07/23 01:30:07;;;;;;;21.55;13.35;;;17.80;99.90;;;;;;5032213;28;20134;-75
2021/07/23 01:32:34;;;;;;;24.55;14.13;;;17.70;99.90;;;;;;5032382;28;20058;-74
2021/07/23 01:35:02;;;;;;;22.02;13.85;;;17.60;99.90;;;;;;5033331;28;20052;-75
2021/07/23 01:37:29;;;;;;;21.67;13.98;;;17.60;99.90;;;;;;5032584;28;20174;-75
2021/07/23 01:39:59;;;;;;;22.98;13.70;;;17.50;99.90;;;;;;5031870;28;20113;-75
2021/07/23 01:42:27;;;;;;;23.58;13.77;;;17.50;99.90;;;;;;5029557;28;20044;-75
2021/07/23 01:44:54;;;;;;;24.80;14.07;;;17.50;99.90;;;;;;5031460;28;20094;-75
2021/07/23 01:47:21;;;;;;;26.27;14.45;;;17.50;99.90;;;;;;5031465;28;20088;-75
2021/07/23 01:49:48;;;;;;;29.27;14.25;;;17.40;99.90;;;;;;5032169;28;20106;-75
2021/07/23 01:52:15;;;;;;;27.02;14.48;;;17.40;99.90;;;;;;5031969;28;20052;-75
2021/07/23 01:54:42;;;;;;;22.42;15.00;;;17.30;99.90;;;;;;5033496;28;20217;-76
2021/07/23 01:57:11;;;;;;;22.52;13.65;;;17.30;99.90;;;;;;5030943;28;20079;-75
2021/07/23 01:59:38;;;;;;;23.00;14.50;;;17.30;99.90;;;;;;5032208;28;20056;-75
2021/07/23 02:02:05;;;;;;;26.30;13.43;;;17.40;99.90;;;;;;5033298;28;20530;-74
2021/07/23 02:04:33;;;;;;;22.48;14.20;;;17.30;99.90;;;;;;5032078;28;21025;-74
2021/07/23 02:07:00;;;;;;;23.63;14.07;;;17.30;99.90;;;;;;5029779;28;20147;-74
2021/07/23 02:09:27;;;;;;;23.35;13.43;;;17.30;99.90;;;;;;5030544;28;20398;-74
2021/07/23 02:11:54;;;;;;;25.60;14.50;;;17.20;99.90;;;;;;5030070;28;20463;-74
2021/07/23 02:14:24;;;;;;;25.23;15.30;;;17.20;99.90;;;;;;5031079;28;20056;-74
2021/07/23 02:16:51;;;;;;;24.88;14.52;;;17.10;99.90;;;;;;5031919;28;20057;-75
2021/07/23 02:19:18;;;;;;;26.50;15.20;;;17.10;99.90;;;;;;5029844;28;20084;-75
2021/07/23 02:21:45;;;;;;;23.75;15.27;;;17.10;99.90;;;;;;5031983;28;20528;-75
2021/07/23 02:24:12;;;;;;;22.70;14.52;;;17.10;99.90;;;;;;5031445;28;20052;-75
2021/07/23 02:26:39;;;;;;;26.55;15.82;;;17.00;99.90;;;;;;5032578;28;20044;-74
2021/07/23 02:29:06;;;;;;;23.35;14.27;;;17.00;99.90;;;;;;5031185;28;20110;-74
2021/07/23 02:31:34;;;;;;;25.88;15.02;;;17.00;99.90;;;;;;5031872;28;20080;-75
2021/07/23 02:34:01;;;;;;;27.27;15.85;;;16.90;99.90;;;;;;5032517;28;20056;-74
2021/07/23 02:36:28;;;;;;;32.40;15.82;;;16.90;99.90;;;;;;5030971;28;20570;-75
2021/07/23 02:38:55;;;;;;;28.60;17.10;;;16.90;99.90;;;;;;5031274;28;21044;-75
2021/07/23 02:41:22;;;;;;;28.63;16.52;;;16.90;99.90;;;;;;5031595;28;20149;-75
2021/07/23 02:43:49;;;;;;;25.73;15.93;;;16.80;99.90;;;;;;5032174;28;20044;-75
2021/07/23 02:46:17;;;;;;;26.75;16.65;;;16.80;99.90;;;;;;5032252;28;20056;-74
2021/07/23 02:48:45;;;;;;;26.73;15.88;;;16.70;99.90;;;;;;5029244;28;20177;-74
2021/07/23 02:51:12;;;;;;;28.65;16.02;;;16.70;99.90;;;;;;5031929;28;20835;-75
2021/07/23 02:53:39;;;;;;;26.00;15.05;;;16.60;99.90;;;;;;5033877;28;20080;-74
2021/07/23 02:56:07;;;;;;;27.23;15.60;;;16.60;99.90;;;;;;5038313;28;20044;-74
2021/07/23 02:58:38;;;;;;;27.70;15.55;;;16.60;99.90;;;;;;5035473;28;20140;-75
2021/07/23 03:01:05;;;;;;;27.23;16.23;;;16.60;99.90;;;;;;5034563;28;20045;-75
2021/07/23 03:03:32;;;;;;;24.27;14.32;;;16.60;99.90;;;;;;5035941;28;20135;-75
2021/07/23 03:06:00;;;;;;;26.50;16.33;;;16.50;99.90;;;;;;5036228;28;20118;-75
2021/07/23 03:08:27;;;;;;;27.10;16.58;;;16.60;99.90;;;;;;5030746;28;20076;-75
2021/07/23 03:10:55;;;;;;;27.98;16.83;;;16.60;99.90;;;;;;5037025;28;20123;-75
2021/07/23 03:13:22;;;;;;;24.83;15.27;;;16.50;99.90;;;;;;5032782;28;20044;-75
2021/07/23 03:15:49;;;;;;;26.65;15.13;;;16.50;99.90;;;;;;5035079;28;20133;-76
2021/07/23 03:18:17;;;;;;;25.90;15.65;;;16.50;99.90;;;;;;5034248;28;20088;-75
2021/07/23 03:20:44;;;;;;;26.40;16.75;;;16.50;99.90;;;;;;5035947;28;20053;-76
2021/07/23 03:23:12;;;;;;;32.33;15.77;;;16.60;99.90;;;;;;5035402;28;20056;-76
2021/07/23 03:25:40;;;;;;;29.90;17.55;;;16.50;99.90;;;;;;5035046;28;20141;-76
2021/07/23 03:28:07;;;;;;;26.95;16.30;;;16.30;99.90;;;;;;5034344;28;20052;-76
2021/07/23 03:30:34;;;;;;;27.00;15.60;;;16.50;99.90;;;;;;5035684;28;20040;-76
2021/07/23 03:33:02;;;;;;;29.77;16.20;;;16.40;99.90;;;;;;5035580;28;20084;-76
2021/07/23 03:35:29;;;;;;;32.38;17.50;;;16.40;99.90;;;;;;5033416;28;20088;-76
2021/07/23 03:37:56;;;;;;;27.40;17.00;;;16.30;99.90;;;;;;5033321;28;20130;-76
2021/07/23 03:40:25;;;;;;;31.55;17.52;;;16.30;99.90;;;;;;5034683;28;20059;-76
2021/07/23 03:42:52;;;;;;;31.83;17.23;;;16.20;99.90;;;;;;5034788;28;20102;-76
2021/07/23 03:45:19;;;;;;;30.35;15.40;;;16.20;99.90;;;;;;5034584;28;20134;-76
2021/07/23 03:47:46;;;;;;;27.52;16.70;;;16.20;99.90;;;;;;5033557;28;20102;-76
2021/07/23 03:50:13;;;;;;;30.10;17.45;;;16.20;99.90;;;;;;5034348;28;20052;-76
2021/07/23 03:52:40;;;;;;;27.70;16.48;;;16.10;99.90;;;;;;5033520;28;20463;-75
2021/07/23 03:55:10;;;;;;;29.48;16.63;;;16.20;99.90;;;;;;5035496;28;20076;-74
2021/07/23 03:57:39;;;;;;;28.08;17.38;;;16.20;99.90;;;;;;5035087;28;20136;-76
2021/07/23 04:00:08;;;;;;;25.88;16.30;;;16.30;99.90;;;;;;5034648;28;20063;-75
2021/07/23 04:02:35;;;;;;;28.65;16.48;;;16.20;99.90;;;;;;5034141;28;20109;-76
2021/07/23 04:05:03;;;;;;;30.17;17.52;;;16.10;99.90;;;;;;5032753;28;20497;-75
2021/07/23 04:07:31;;;;;;;28.40;16.67;;;16.20;99.90;;;;;;5033663;28;20576;-75
2021/07/23 04:09:58;;;;;;;28.15;16.30;;;16.10;99.90;;;;;;5031479;28;20041;-75
2021/07/23 04:12:25;;;;;;;32.13;17.38;;;16.10;99.90;;;;;;5034702;28;20082;-75
2021/07/23 04:14:54;;;;;;;32.38;16.83;;;16.20;99.90;;;;;;5033759;28;20080;-75
2021/07/23 04:17:21;;;;;;;28.90;16.48;;;16.20;99.90;;;;;;5035326;28;20052;-75
2021/07/23 04:19:48;;;;;;;29.73;17.25;;;16.30;99.90;;;;;;5033974;28;20052;-74
2021/07/23 04:22:16;;;;;;;27.52;15.70;;;16.30;99.90;;;;;;5033688;28;20056;-74
2021/07/23 04:24:43;;;;;;;27.60;16.30;;;16.30;99.90;;;;;;5034610;28;20114;-74
2021/07/23 04:27:11;;;;;;;27.48;16.42;;;16.40;99.90;;;;;;5033030;28;20048;-74
2021/07/23 04:29:38;;;;;;;30.38;17.60;;;16.40;99.90;;;;;;5032120;28;20106;-74
2021/07/23 04:32:07;;;;;;;31.50;15.88;;;16.40;99.90;;;;;;5033980;28;21087;-75
2021/07/23 04:34:34;;;;;;;33.95;18.60;;;16.50;99.90;;;;;;5033673;28;20052;-75
2021/07/23 04:37:01;;;;;;;30.60;17.70;;;16.50;99.90;;;;;;5034182;28;20347;-75
2021/07/23 04:39:28;;;;;;;29.80;17.25;;;16.50;99.90;;;;;;5031386;28;20474;-74
2021/07/23 04:41:55;;;;;;;33.58;17.60;;;16.50;99.90;;;;;;5031506;28;20508;-74
2021/07/23 04:44:21;;;;;;;27.67;16.83;;;16.60;99.90;;;;;;5034126;28;20044;-75
2021/07/23 04:46:49;;;;;;;29.55;16.90;;;16.50;99.90;;;;;;5034559;28;20060;-75
2021/07/23 04:49:18;;;;;;;29.10;16.77;;;16.50;99.90;;;;;;5035254;28;20638;-75
2021/07/23 04:51:45;;;;;;;30.13;17.20;;;16.60;99.90;;;;;;5036592;28;20496;-75
2021/07/23 04:54:12;;;;;;;30.17;17.33;;;16.80;99.90;;;;;;5032630;28;20098;-75
2021/07/23 04:56:39;;;;;;;29.88;17.08;;;16.70;99.90;;;;;;5035607;28;20045;-75
2021/07/23 04:59:06;;;;;;;28.90;17.42;;;16.70;99.90;;;;;;5033415;28;20827;-75
2021/07/23 05:01:34;;;;;;;28.42;16.98;;;16.70;99.90;;;;;;5033417;28;20044;-75
2021/07/23 05:04:02;;;;;;;28.50;16.98;;;16.70;99.90;;;;;;5033890;28;20580;-74
2021/07/23 05:06:30;;;;;;;29.10;17.15;;;16.70;99.90;;;;;;5033249;28;20493;-75
2021/07/23 05:08:57;;;;;;;28.27;16.90;;;16.80;99.90;;;;;;5033132;28;20094;-74
2021/07/23 05:11:24;;;;;;;28.27;17.23;;;16.80;99.90;;;;;;5033767;28;20044;-74
2021/07/23 05:13:51;;;;;;;40.92;19.00;;;16.70;99.90;;;;;;5035084;28;20079;-73
2021/07/23 05:16:19;;;;;;;29.17;15.48;;;16.70;99.90;;;;;;5034825;28;20132;-74
2021/07/23 05:18:46;;;;;;;28.77;16.65;;;17.00;99.90;;;;;;5033004;28;20106;-73
2021/07/23 05:21:13;;;;;;;29.05;17.27;;;16.90;99.90;;;;;;5033259;28;20041;-73
2021/07/23 05:23:42;;;;;;;28.00;15.75;;;16.90;99.90;;;;;;5033668;28;20090;-73
2021/07/23 05:26:10;;;;;;;28.67;15.98;;;17.00;99.90;;;;;;5033727;28;21433;-73
2021/07/23 05:28:37;;;;;;;27.10;16.05;;;17.00;99.90;;;;;;5034473;28;21520;-73
2021/07/23 05:31:04;;;;;;;31.08;17.85;;;17.00;99.90;;;;;;5037170;28;20366;-74
2021/07/23 05:33:31;;;;;;;31.27;17.10;;;17.10;99.90;;;;;;5041372;28;20142;-75
2021/07/23 05:35:58;;;;;;;31.65;18.95;;;17.10;99.90;;;;;;5039587;28;20049;-75
2021/07/23 05:38:25;;;;;;;32.92;18.40;;;17.10;99.90;;;;;;5041137;28;20072;-75
2021/07/23 05:40:53;;;;;;;34.22;19.02;;;17.10;99.90;;;;;;5034409;28;20098;-75
2021/07/23 05:43:21;;;;;;;32.17;18.40;;;17.30;99.90;;;;;;5044310;28;20473;-75
2021/07/23 05:45:48;;;;;;;36.78;18.85;;;17.40;99.90;;;;;;5041512;28;20052;-76
2021/07/23 05:48:15;;;;;;;38.50;18.92;;;17.60;99.90;;;;;;5041323;28;20423;-75
2021/07/23 05:50:42;;;;;;;32.10;19.48;;;17.60;99.90;;;;;;5041071;28;20053;-74
2021/07/23 05:53:09;;;;;;;35.67;18.75;;;17.50;99.90;;;;;;5041994;28;20131;-74
2021/07/23 05:55:37;;;;;;;34.60;18.27;;;17.60;99.90;;;;;;5041293;28;21132;-73
2021/07/23 05:58:05;;;;;;;40.83;19.15;;;17.70;99.90;;;;;;5039809;28;20050;-73
2021/07/23 06:00:32;;;;;;;32.95;19.88;;;17.70;99.90;;;;;;5040335;28;20071;-73
2021/07/23 06:03:03;;;;;;;37.20;19.65;;;17.80;99.90;;;;;;5037770;28;20056;-73
2021/07/23 06:05:31;;;;;;;36.95;20.20;;;17.80;99.90;;;;;;5037262;28;21020;-75
2021/07/23 06:07:58;;;;;;;39.08;20.25;;;18.00;99.90;;;;;;5034946;28;20147;-73
2021/07/23 06:10:25;;;;;;;34.75;18.15;;;17.90;99.90;;;;;;5036677;28;20060;-73
2021/07/23 06:12:53;;;;;;;36.25;19.27;;;18.00;99.90;;;;;;5037199;28;20056;-74
2021/07/23 06:15:21;;;;;;;38.83;20.73;;;18.10;99.90;;;;;;5040034;28;20501;-74
2021/07/23 06:17:48;;;;;;;37.30;19.75;;;18.00;99.90;;;;;;5039298;28;20049;-74
2021/07/23 06:20:15;;;;;;;36.00;20.08;;;18.20;99.90;;;;;;5040894;28;20447;-73
2021/07/23 06:22:42;;;;;;;36.20;21.05;;;18.30;99.90;;;;;;5040095;28;20048;-73
2021/07/23 06:25:11;;;;;;;31.90;19.92;;;18.30;99.90;;;;;;5040406;28;20071;-73
2021/07/23 06:27:38;;;;;;;33.47;19.77;;;18.40;99.90;;;;;;5039336;28;20044;-73
2021/07/23 06:30:07;;;;;;;28.88;18.52;;;18.40;99.90;;;;;;5045003;28;20047;-74
2021/07/23 06:32:36;;;;;;;31.08;18.60;;;18.50;99.90;;;;;;5043929;28;20079;-74
2021/07/23 06:35:03;;;;;;;31.63;19.23;;;18.70;99.90;;;;;;5043423;28;20060;-74
2021/07/23 06:37:30;;;;;;;31.70;19.73;;;18.70;99.90;;;;;;5044059;28;20052;-74
2021/07/23 06:39:57;;;;;;;30.85;18.38;;;18.70;99.90;;;;;;5043453;28;20060;-73
2021/07/23 06:42:25;;;;;;;32.88;19.23;;;18.70;99.90;;;;;;5041884;28;20056;-74
2021/07/23 06:44:52;;;;;;;31.05;18.17;;;18.80;99.90;;;;;;5043299;28;20052;-76
2021/07/23 06:47:19;;;;;;;34.00;19.02;;;18.90;99.90;;;;;;5044027;28;20519;-74
2021/07/23 06:49:48;;;;;;;33.03;19.15;;;19.00;99.90;;;;;;5042990;28;20053;-74
2021/07/23 06:52:15;;;;;;;29.60;18.10;;;19.20;99.90;;;;;;5044332;28;20083;-74
2021/07/23 06:54:43;;;;;;;30.85;18.15;;;19.30;99.90;;;;;;5044763;28;20048;-73
2021/07/23 06:57:10;;;;;;;36.28;18.88;;;19.40;99.90;;;;;;5043932;28;20052;-74
2021/07/23 06:59:37;;;;;;;34.78;19.73;;;19.50;99.90;;;;;;5042769;28;20045;-75
2021/07/23 07:02:04;;;;;;;27.42;17.38;;;19.60;99.90;;;;;;5044591;28;20128;-73
2021/07/23 07:04:32;;;;;;;33.67;18.50;;;19.80;99.90;;;;;;5043850;28;20056;-73
2021/07/23 07:07:01;;;;;;;33.08;18.10;;;19.80;99.90;;;;;;5044533;28;20590;-75
2021/07/23 07:09:29;;;;;;;31.63;18.05;;;19.90;99.90;;;;;;5041024;28;20064;-75
2021/07/23 07:11:58;;;;;;;29.77;17.83;;;20.00;99.90;;;;;;5041485;28;20052;-74
2021/07/23 07:14:26;;;;;;;28.98;17.80;;;20.00;99.90;;;;;;5043873;28;20045;-73
2021/07/23 07:16:53;;;;;;;30.13;17.10;;;20.10;99.90;;;;;;5044681;28;20306;-74
2021/07/23 07:19:20;;;;;;;28.52;17.45;;;20.20;99.90;;;;;;5042498;28;20048;-74
2021/07/23 07:21:49;;;;;;;26.80;15.77;;;20.40;99.90;;;;;;5039822;28;20152;-74
2021/07/23 07:24:18;;;;;;;30.05;17.30;;;20.50;99.90;;;;;;5034432;28;20370;-74
2021/07/23 07:26:46;;;;;;;27.55;16.25;;;20.60;99.90;;;;;;5035423;28;20177;-74
2021/07/23 07:29:13;;;;;;;31.60;15.98;;;20.80;99.90;;;;;;5033545;28;20416;-74
2021/07/23 07:31:40;;;;;;;30.48;17.40;;;20.80;99.90;;;;;;5034423;28;20082;-74
2021/07/23 07:34:08;;;;;;;31.15;17.38;;;20.90;99.90;;;;;;5034974;28;20586;-73
2021/07/23 07:36:35;;;;;;;28.33;16.20;;;21.10;99.90;;;;;;5034466;28;20501;-73
2021/07/23 07:39:03;;;;;;;28.83;15.65;;;21.20;99.90;;;;;;5033614;28;20566;-75
2021/07/23 07:41:31;;;;;;;27.55;16.52;;;21.10;99.90;;;;;;5033368;28;20079;-73
2021/07/23 07:43:58;;;;;;;24.60;15.75;;;21.30;99.90;;;;;;5034809;28;20056;-74
2021/07/23 07:46:26;;;;;;;27.63;16.42;;;21.40;99.90;;;;;;5035142;28;20060;-75
2021/07/23 07:48:53;;;;;;;26.80;16.52;;;21.30;99.90;;;;;;5033187;28;20501;-73
2021/07/23 07:51:20;;;;;;;28.08;16.67;;;21.30;99.90;;;;;;5034438;28;20493;-73
2021/07/23 07:53:47;;;;;;;26.50;15.70;;;21.50;99.90;;;;;;5034062;28;20057;-67
2021/07/23 07:56:15;;;;;;;26.23;15.23;;;21.60;99.90;;;;;;5034537;28;20612;-72
2021/07/23 07:58:43;;;;;;;23.92;15.45;;;21.70;99.90;;;;;;5035193;28;20048;-73
2021/07/23 08:01:14;;;;;;;26.67;16.08;;;21.80;99.90;;;;;;5037792;28;20045;-74
2021/07/23 08:03:42;;;;;;;27.08;15.07;;;22.00;99.90;;;;;;5038001;28;20047;-73
2021/07/23 08:06:18;;;;;;;25.05;14.82;;;22.10;99.90;;;;;;5036986;28;20460;-71
2021/07/23 08:08:45;;;;;;;23.73;14.27;;;22.20;99.90;;;;;;5038552;28;20060;-72
2021/07/23 08:11:12;;;;;;;24.70;14.50;;;22.20;99.90;;;;;;5034927;28;20053;-70
2021/07/23 08:13:40;;;;;;;26.10;14.68;;;22.40;99.90;;;;;;5035057;28;21287;-70
2021/07/23 08:16:09;;;;;;;28.25;14.75;;;22.40;99.90;;;;;;5035545;28;20562;-70
2021/07/23 08:18:36;;;;;;;28.35;15.90;;;22.60;99.90;;;;;;5033142;28;20097;-69
2021/07/23 08:21:04;;;;;;;31.42;16.10;;;22.60;99.90;;;;;;5035108;28;20100;-73
2021/07/23 08:23:32;;;;;;;25.45;15.27;;;22.90;99.90;;;;;;5035838;28;20084;-72
2021/07/23 08:25:59;;;;;;;29.35;15.50;;;22.70;99.90;;;;;;5035300;28;20048;-69
2021/07/23 08:28:27;;;;;;;30.58;16.63;;;23.00;99.90;;;;;;5034681;28;20071;-73
2021/07/23 08:30:54;;;;;;;31.38;16.33;;;23.40;99.90;;;;;;5036309;28;21215;-73
2021/07/23 08:33:24;;;;;;;48.83;18.33;;;23.70;99.90;;;;;;5035445;28;20052;-72
2021/07/23 08:35:51;;;;;;;29.10;16.00;;;23.90;99.90;;;;;;5035521;28;20140;-71
2021/07/23 08:38:19;;;;;;;23.75;14.68;;;24.00;99.90;;;;;;5035989;28;20110;-72
2021/07/23 08:40:46;;;;;;;27.00;16.10;;;24.30;99.90;;;;;;5037800;28;20512;-71
2021/07/23 08:43:13;;;;;;;26.73;14.95;;;24.60;99.90;;;;;;5035087;28;20084;-71
2021/07/23 08:45:40;;;;;;;23.98;16.95;;;24.90;99.90;;;;;;5036000;28;20044;-72
2021/07/23 08:48:08;;;;;;;27.27;15.52;;;25.20;99.90;;;;;;5032288;28;20121;-72
2021/07/23 08:50:36;;;;;;;26.80;15.60;;;25.50;99.90;;;;;;5034557;28;20049;-72
2021/07/23 08:53:09;;;;;;;27.17;15.40;;;25.60;99.90;;;;;;5033099;28;20052;-72
2021/07/23 08:55:36;;;;;;;28.67;16.13;;;26.00;99.90;;;;;;5033609;28;20141;-73
2021/07/23 08:58:06;;;;;;;35.60;15.57;;;26.60;99.90;;;;;;5033018;28;20040;-73
2021/07/23 09:00:34;;;;;;;23.30;15.38;;;27.50;99.90;;;;;;5034014;28;20058;-73
2021/07/23 09:03:02;;;;;;;19.75;14.80;;;28.10;99.90;;;;;;5032937;28;20049;-73
2021/07/23 09:05:30;;;;;;;26.55;14.48;;;28.80;99.90;;;;;;5035891;28;20806;-74
2021/07/23 09:08:11;;;;;;;25.95;15.10;;;29.30;99.90;;;;;;5029370;28;20040;-78
2021/07/23 09:10:38;;;;;;;22.25;14.35;;;30.00;99.90;;;;;;5036700;28;20424;-78
2021/07/23 09:13:05;;;;;;;23.25;14.85;;;30.50;99.90;;;;;;5036704;28;20053;-78
2021/07/23 09:15:38;;;;;;;20.70;14.15;;;31.00;99.90;;;;;;5044908;28;20060;-77
2021/07/23 09:18:06;;;;;;;22.67;13.90;;;31.40;99.90;;;;;;5045048;28;20052;-78
2021/07/23 09:20:36;;;;;;;19.65;14.60;;;31.80;99.90;;;;;;5045710;28;20059;-78
2021/07/23 09:23:06;;;;;;;21.45;14.73;;;32.20;99.90;;;;;;5045949;28;20072;-79
2021/07/23 09:25:41;;;;;;;20.92;14.25;;;32.50;99.90;;;;;;5045233;28;20079;-77
2021/07/23 09:28:28;;;;;;;17.67;13.73;;;32.80;99.80;;;;;;5045102;28;20099;-77
2021/07/23 09:30:55;;;;;;;20.02;13.93;;;33.50;99.00;;;;;;5044670;28;20052;-78
2021/07/23 09:33:28;;;;;;;18.83;14.00;;;33.90;97.50;;;;;;5044277;28;20062;-77
2021/07/23 09:35:56;;;;;;;19.55;14.13;;;33.80;96.50;;;;;;5041964;28;20049;-79
2021/07/23 09:38:26;;;;;;;17.95;13.38;;;33.60;95.30;;;;;;5042870;28;20098;-78
2021/07/23 09:40:53;;;;;;;16.80;12.93;;;34.20;94.60;;;;;;5044415;28;20056;-78
2021/07/23 09:43:45;;;;;;;18.48;12.68;;;34.70;93.80;;;;;;5044621;28;20485;-77
2021/07/23 09:46:27;;;;;;;15.35;12.30;;;34.30;92.00;;;;;;5020914;28;20049;-78
2021/07/23 09:48:55;;;;;;;18.77;13.07;;;33.30;92.00;;;;;;5036534;28;20896;-79
2021/07/23 09:51:24;;;;;;;17.38;12.45;;;33.20;92.80;;;;;;5037766;28;20044;-78
2021/07/23 09:53:54;;;;;;;17.80;12.88;;;33.50;92.50;;;;;;5036993;28;20053;-77
2021/07/23 09:56:23;;;;;;;16.65;11.98;;;34.40;92.20;;;;;;5038260;28;20075;-77
2021/07/23 09:58:56;;;;;;;16.58;11.38;;;34.50;91.00;;;;;;5037077;28;20210;-79
2021/07/23 10:01:30;;;;;;;14.52;11.20;;;34.90;90.10;;;;;;5039095;28;20132;-77
2021/07/23 10:04:00;;;;;;;17.70;10.75;;;35.50;88.70;;;;;;5039048;28;20156;-80
2021/07/23 10:06:34;;;;;;;13.80;11.20;;;36.00;86.70;;;;;;5042959;28;20056;-78
2021/07/23 10:09:08;;;;;;;17.70;11.52;;;36.10;84.20;;;;;;5040218;28;20076;-79
2021/07/23 10:11:36;;;;;;;16.10;11.65;;;36.20;82.00;;;;;;5042961;28;20102;-78
2021/07/23 10:14:05;;;;;;;14.82;11.15;;;36.40;79.80;;;;;;5042600;28;20509;-79
2021/07/23 10:16:34;;;;;;;16.67;11.20;;;36.80;78.70;;;;;;5042309;28;20149;-77
2021/07/23 10:19:03;;;;;;;14.07;10.45;;;36.70;75.70;;;;;;5041207;28;20045;-76
2021/07/23 10:21:30;;;;;;;15.55;11.55;;;36.40;76.20;;;;;;5041518;28;20394;-77
2021/07/23 10:23:57;;;;;;;14.98;11.35;;;36.70;75.80;;;;;;5043247;28;20060;-78
2021/07/23 10:26:30;;;;;;;14.70;11.43;;;36.80;74.50;;;;;;5045559;28;20059;-77
2021/07/23 10:28:58;;;;;;;17.38;12.15;;;36.10;74.80;;;;;;5041429;28;20052;-77
2021/07/23 10:31:55;;;;;;;16.70;11.90;;;36.60;72.30;;;;;;5045961;28;20075;-77
2021/07/23 10:34:32;;;;;;;13.00;11.00;;;35.00;75.00;;;;;;5004652;28;1136252;-80
2021/07/23 10:37:00;;;;;;;18.85;11.57;;;35.10;73.90;;;;;;5045496;28;20049;-79
2021/07/23 10:39:27;;;;;;;19.40;12.23;;;35.20;74.70;;;;;;5042063;28;20444;-78
2021/07/23 10:42:34;;;;;;;20.98;12.10;;;33.90;77.90;;;;;;5042748;28;20137;-76
2021/07/23 10:45:03;;;;;;;18.40;11.95;;;34.50;78.00;;;;;;5042345;28;20519;-76
2021/07/23 10:47:41;;;;;;;17.33;11.30;;;34.60;77.90;;;;;;5042559;28;20230;-78
2021/07/23 10:50:11;;;;;;;16.80;11.82;;;35.30;76.30;;;;;;5042571;28;20453;-78
2021/07/23 10:52:38;;;;;;;17.60;11.65;;;35.20;74.20;;;;;;5042298;28;20059;-78
2021/07/23 10:55:11;;;;;;;16.33;11.55;;;35.30;75.00;;;;;;5043407;28;20058;-77
2021/07/23 10:57:38;;;;;;;15.20;12.18;;;36.00;75.30;;;;;;5041284;28;20122;-79
2021/07/23 11:00:08;;;;;;;15.60;11.93;;;35.00;75.70;;;;;;5042200;28;20516;-78
2021/07/23 11:02:46;;;;;;;17.38;12.50;;;34.10;74.30;;;;;;5044100;28;20114;-76
2021/07/23 11:05:18;;;;;;;24.58;12.23;;;34.20;74.90;;;;;;5043291;28;20284;-77
2021/07/23 11:07:46;;;;;;;16.33;11.95;;;33.80;76.30;;;;;;5040507;28;20455;-79
2021/07/23 11:10:20;;;;;;;15.70;11.80;;;34.70;76.20;;;;;;5042963;28;20055;-77
2021/07/23 11:12:47;;;;;;;18.45;11.60;;;34.80;75.60;;;;;;5045937;28;20052;-77
2021/07/23 11:15:18;;;;;;;15.43;11.27;;;35.30;75.70;;;;;;5044442;28;20386;-78
2021/07/23 11:17:56;;;;;;;16.67;12.00;;;36.10;73.70;;;;;;5041580;28;20175;-76
2021/07/23 11:20:28;;;;;;;20.10;12.52;;;36.50;73.30;;;;;;5041265;28;20130;-78
2021/07/23 11:22:56;;;;;;;13.25;11.05;;;36.80;72.00;;;;;;5046666;28;20122;-76
2021/07/23 11:25:24;;;;;;;18.02;11.60;;;37.20;71.00;;;;;;5044507;28;20157;-77
2021/07/23 11:27:54;;;;;;;15.02;11.98;;;37.30;70.40;;;;;;5045305;28;20141;-78
2021/07/23 11:30:25;;;;;;;18.38;12.45;;;36.50;71.40;;;;;;5043947;28;20437;-79
2021/07/23 11:32:54;;;;;;;19.13;11.70;;;37.70;70.10;;;;;;5040490;28;20185;-77
2021/07/23 11:35:23;;;;;;;14.05;11.18;;;37.50;69.10;;;;;;5040368;28;20044;-77
2021/07/23 11:37:52;;;;;;;16.17;11.32;;;38.10;67.70;;;;;;5038656;28;20052;-78
2021/07/23 11:40:22;;;;;;;15.65;12.02;;;38.40;67.30;;;;;;5045182;28;20503;-77
2021/07/23 11:42:51;;;;;;;17.05;12.10;;;38.20;66.30;;;;;;5043340;28;20139;-78
2021/07/23 11:45:19;;;;;;;13.73;11.65;;;38.20;65.50;;;;;;5044200;28;20569;-79
2021/07/23 11:47:49;;;;;;;19.75;11.82;;;38.10;65.30;;;;;;5044583;28;20044;-79
2021/07/23 11:50:20;;;;;;;22.85;13.40;;;38.60;64.10;;;;;;5045748;28;20413;-79
2021/07/23 11:52:50;;;;;;;16.40;11.95;;;37.00;65.00;;;;;;5043005;28;20094;-79
2021/07/23 11:55:18;;;;;;;16.52;12.48;;;36.10;67.00;;;;;;5043472;28;20520;-77
2021/07/23 11:57:47;;;;;;;15.98;11.85;;;37.60;65.60;;;;;;5036540;28;20661;-77
2021/07/23 12:00:27;;;;;;;18.15;12.00;;;37.40;65.00;;;;;;5037540;28;20566;-77
2021/07/23 12:02:56;;;;;;;17.58;12.38;;;36.60;67.70;;;;;;5040744;28;20501;-77
2021/07/23 12:05:24;;;;;;;16.17;11.23;;;36.60;66.50;;;;;;5039982;28;20045;-77
2021/07/23 12:11:23;;;;;;;18.02;12.50;;;37.90;65.30;;;;;;5054086;28;20076;-78
2021/07/23 12:13:50;;;;;;;13.93;11.55;;;37.80;64.60;;;;;;5034716;28;20087;-78
2021/07/23 12:16:18;;;;;;;14.95;12.15;;;37.80;64.40;;;;;;5036192;28;20558;-78
2021/07/23 12:18:57;;;;;;;17.00;12.10;;;38.10;64.10;;;;;;5035126;28;20498;-78
2021/07/23 12:21:25;;;;;;;14.77;11.30;;;38.40;64.00;;;;;;5038288;28;20914;-78
2021/07/23 12:24:02;;;;;;;18.15;10.75;;;38.60;62.40;;;;;;5038585;28;20053;-78
2021/07/23 12:26:31;;;;;;;16.67;11.50;;;38.50;61.90;;;;;;5039121;28;20143;-78
2021/07/23 12:28:59;;;;;;;14.20;11.60;;;38.40;61.50;;;;;;5038362;28;20471;-78
2021/07/23 12:31:27;;;;;;;16.77;11.90;;;38.50;60.70;;;;;;5040856;28;20782;-78
2021/07/23 12:34:07;;;;;;;15.30;11.13;;;37.60;62.20;;;;;;5040673;28;20048;-78
2021/07/23 12:36:47;;;;;;;16.77;11.85;;;38.30;62.40;;;;;;5042790;28;20040;-78